Time;durP1;ratioP1;P1;durP2;ratioP2;P2;SDS_P1;SDS_P2;PMS_P1;PMS_P2;Temp;Humidity;BMP_temperature;BMP_pressure;BME280_temperature;BME280_humidity;BME280_pressure;Samples;Min_cycle;Max_cycle;Signal;HPM_P1;HPM_P2
2023/12/03 00:02:08;;;;;;;75.00;45.97;;;;;;;6.33;100.00;99204.63;5075349;28;20039;-81
2023/12/03 00:04:38;;;;;;;72.50;46.17;;;;;;;6.17;100.00;99229.78;5056667;28;20036;-81
2023/12/03 00:07:10;;;;;;;67.20;42.47;;;;;;;6.18;100.00;99209.41;5056943;28;20135;-79
2023/12/03 00:09:39;;;;;;;69.88;44.63;;;;;;;6.38;100.00;99246.38;5075493;28;20032;-80
2023/12/03 00:12:06;;;;;;;71.68;44.75;;;;;;;6.35;100.00;99231.69;5075267;28;20393;-80
2023/12/03 00:14:58;;;;;;;66.32;44.50;;;;;;;6.10;100.00;99236.09;5075416;28;20038;-79
2023/12/03 00:17:31;;;;;;;69.38;44.67;;;;;;;6.34;100.00;99243.34;5075081;28;20024;-80
2023/12/03 00:19:57;;;;;;;68.43;44.67;;;;;;;6.41;100.00;99273.22;5075003;28;20041;-80
2023/12/03 00:22:24;;;;;;;71.18;42.90;;;;;;;6.54;100.00;99268.88;5074961;28;20435;-79
2023/12/03 00:24:53;;;;;;;68.57;44.35;;;;;;;6.44;100.00;99235.75;5074942;28;20550;-80
2023/12/03 00:27:28;;;;;;;72.20;43.65;;;;;;;6.33;100.00;99259.44;5057484;28;20500;-82
2023/12/03 00:29:54;;;;;;;68.97;43.42;;;;;;;6.41;100.00;99249.41;5075370;28;20028;-83
2023/12/03 00:32:19;;;;;;;65.53;43.95;;;;;;;6.37;100.00;99244.75;5075592;28;20039;-80
2023/12/03 00:34:45;;;;;;;73.45;44.53;;;;;;;6.36;100.00;99259.03;5075181;28;20028;-79
2023/12/03 00:37:10;;;;;;;69.93;43.22;;;;;;;6.33;100.00;99233.75;5075256;28;20024;-80
2023/12/03 00:39:36;;;;;;;62.55;41.33;;;;;;;6.30;100.00;99257.22;5071363;28;20037;-80
2023/12/03 00:42:02;;;;;;;62.50;42.20;;;;;;;6.44;100.00;99261.44;5071915;28;20017;-79
2023/12/03 00:44:27;;;;;;;70.07;44.10;;;;;;;5.95;100.00;99231.88;5072057;28;20105;-82
2023/12/03 00:46:53;;;;;;;66.47;42.47;;;;;;;6.16;100.00;99261.75;5053822;28;20064;-80
2023/12/03 00:49:18;;;;;;;64.75;42.00;;;;;;;6.29;100.00;99272.25;5050890;28;20506;-81
2023/12/03 00:51:43;;;;;;;63.35;42.97;;;;;;;6.39;100.00;99275.28;5071830;28;20029;-80
2023/12/03 00:54:09;;;;;;;59.22;42.30;;;;;;;5.88;100.00;99288.47;5071998;28;20060;-81
2023/12/03 00:56:34;;;;;;;61.47;42.53;;;;;;;5.92;100.00;99285.19;5071291;28;20463;-80
2023/12/03 00:59:00;;;;;;;65.10;42.45;;;;;;;6.01;100.00;99264.66;5071622;28;20386;-80
2023/12/03 01:01:25;;;;;;;61.75;40.92;;;;;;;6.22;100.00;99279.44;5071461;28;20029;-81
2023/12/03 01:03:50;;;;;;;71.78;43.28;;;;;;;6.16;100.00;99277.63;5071240;28;20107;-79
2023/12/03 01:06:16;;;;;;;64.57;42.33;;;;;;;6.21;100.00;99305.09;5053304;28;20024;-81
2023/12/03 01:08:41;;;;;;;59.42;40.67;;;;;;;6.07;100.00;99323.88;5071128;28;20036;-80
2023/12/03 01:11:07;;;;;;;63.28;41.10;;;;;;;6.18;100.00;99323.25;5071351;28;20028;-79
2023/12/03 01:13:32;;;;;;;65.85;41.38;;;;;;;5.94;100.00;99298.22;5071082;28;20036;-80
2023/12/03 01:15:58;;;;;;;66.20;42.72;;;;;;;6.12;100.00;99334.66;5071201;28;20031;-80
2023/12/03 01:18:24;;;;;;;62.22;40.17;;;;;;;6.10;100.00;99315.53;5071132;28;20131;-80
2023/12/03 01:20:49;;;;;;;57.63;39.70;;;;;;;5.77;100.00;99319.03;5071361;28;20055;-82
2023/12/03 01:23:14;;;;;;;65.97;42.30;;;;;;;5.88;100.00;99288.47;5071252;28;20020;-80
2023/12/03 01:25:40;;;;;;;66.20;40.70;;;;;;;5.81;100.00;99307.00;5071326;28;20033;-81
2023/12/03 01:28:05;;;;;;;60.20;41.28;;;;;;;5.46;100.00;99282.66;5071182;28;20024;-81
2023/12/03 01:30:31;;;;;;;65.10;41.78;;;;;;;5.82;100.00;99290.09;5071180;28;20028;-79
2023/12/03 01:32:56;;;;;;;63.95;41.58;;;;;;;5.52;100.00;99290.56;5070682;28;20016;-82
2023/12/03 01:35:21;;;;;;;63.75;41.92;;;;;;;5.75;100.00;99300.69;5070668;28;20040;-81
2023/12/03 01:37:48;;;;;;;62.75;41.97;;;;;;;5.94;100.00;99293.72;5070891;28;20103;-80
2023/12/03 01:40:13;;;;;;;62.30;40.25;;;;;;;5.88;100.00;99318.38;5070610;28;20077;-79
2023/12/03 01:42:39;;;;;;;65.22;42.65;;;;;;;5.53;100.00;99276.31;5070828;28;20025;-81
2023/12/03 01:45:05;;;;;;;58.60;38.75;;;;;;;5.67;100.00;99314.13;5071108;28;20066;-81
2023/12/03 01:47:31;;;;;;;58.00;37.92;;;;;;;5.70;100.00;99307.63;5070654;28;20021;-80
2023/12/03 01:50:04;;;;;;;61.65;39.22;;;;;;;5.83;100.00;99334.88;5069631;28;20036;-80
2023/12/03 01:52:30;;;;;;;54.80;37.33;;;;;;;5.05;100.00;99313.53;5070501;28;20031;-81
2023/12/03 01:54:57;;;;;;;61.33;38.13;;;;;;;4.89;100.00;99332.41;5070627;28;20028;-81
2023/12/03 01:57:23;;;;;;;57.83;39.58;;;;;;;5.32;100.00;99317.00;5071028;28;20111;-79
2023/12/03 01:59:48;;;;;;;70.13;39.40;;;;;;;4.98;100.00;99318.78;5070468;28;20035;-81
2023/12/03 02:02:14;;;;;;;133.50;41.28;;;;;;;5.22;100.00;99338.53;5070764;28;20024;-79
2023/12/03 02:04:40;;;;;;;201.15;44.53;;;;;;;5.03;100.00;99323.50;5070768;28;20036;-79
2023/12/03 02:07:05;;;;;;;230.35;46.05;;;;;;;5.49;100.00;99319.25;5070421;28;20063;-80
2023/12/03 02:09:31;;;;;;;80.82;41.13;;;;;;;5.19;100.00;99304.59;5069956;28;20115;-80
2023/12/03 02:11:57;;;;;;;63.35;37.58;;;;;;;4.93;100.00;99291.34;5070152;28;20031;-81
2023/12/03 02:14:22;;;;;;;65.88;40.30;;;;;;;5.32;100.00;99305.63;5069712;28;20033;-79
2023/12/03 02:16:48;;;;;;;67.97;40.72;;;;;;;5.48;100.00;99336.94;5069889;28;20557;-81
2023/12/03 02:19:14;;;;;;;67.65;42.63;;;;;;;5.41;100.00;99320.25;5070095;28;20086;-81
2023/12/03 02:21:40;;;;;;;71.38;44.20;;;;;;;5.37;100.00;99308.47;5052060;28;20052;-79
2023/12/03 02:24:05;;;;;;;66.60;44.00;;;;;;;5.38;100.00;99287.09;5070231;28;20032;-80
2023/12/03 02:26:31;;;;;;;66.05;42.40;;;;;;;5.68;100.00;99338.75;5069735;28;20037;-80
2023/12/03 02:28:56;;;;;;;72.47;45.65;;;;;;;5.79;100.00;99325.72;5069883;28;20660;-80
2023/12/03 02:31:22;;;;;;;82.32;48.63;;;;;;;5.41;100.00;99344.06;5069678;28;20190;-79
2023/12/03 02:33:56;;;;;;;68.28;46.50;;;;;;;5.69;100.00;99348.34;5069990;28;20021;-79
2023/12/03 02:36:22;;;;;;;68.22;46.45;;;;;;;5.57;100.00;99367.44;5051917;28;20032;-80
2023/12/03 02:38:47;;;;;;;69.07;46.88;;;;;;;5.46;100.00;99354.84;5069769;28;20039;-80
2023/12/03 02:41:13;;;;;;;68.45;47.25;;;;;;;5.71;100.00;99359.53;5070071;28;20044;-79
2023/12/03 02:43:38;;;;;;;68.05;48.38;;;;;;;5.35;100.00;99366.00;5051807;28;20017;-80
2023/12/03 02:46:04;;;;;;;68.38;46.40;;;;;;;5.40;100.00;99318.63;5069386;28;20036;-80
2023/12/03 02:48:30;;;;;;;71.20;46.58;;;;;;;5.74;100.00;99351.16;5070113;28;20025;-79
2023/12/03 02:50:55;;;;;;;70.53;45.88;;;;;;;5.72;100.00;99316.16;5069679;28;20048;-81
2023/12/03 02:53:20;;;;;;;65.88;45.63;;;;;;;5.50;100.00;99324.34;5069857;28;20343;-81
2023/12/03 02:55:46;;;;;;;68.65;42.92;;;;;;;5.54;100.00;99346.72;5069379;28;20071;-82
2023/12/03 02:58:11;;;;;;;71.30;45.50;;;;;;;5.63;100.00;99349.97;5069282;28;20032;-80
2023/12/03 03:00:37;;;;;;;66.13;43.97;;;;;;;5.60;100.00;99319.44;5051713;28;20044;-79
2023/12/03 03:03:02;;;;;;;63.97;45.33;;;;;;;5.87;100.00;99340.59;5069330;28;20063;-80
2023/12/03 03:05:28;;;;;;;65.88;44.17;;;;;;;5.78;100.00;99336.50;5069368;28;20044;-80
2023/12/03 03:07:53;;;;;;;70.25;44.42;;;;;;;5.85;100.00;99321.44;5069382;28;20050;-79
2023/12/03 03:10:19;;;;;;;69.10;44.75;;;;;;;5.79;100.00;99346.09;5069258;28;20035;-80
2023/12/03 03:12:44;;;;;;;68.57;43.25;;;;;;;5.96;100.00;99357.88;5069193;28;20492;-81
2023/12/03 03:15:10;;;;;;;69.78;43.92;;;;;;;5.82;100.00;99372.13;5068872;28;20020;-80
2023/12/03 03:17:35;;;;;;;62.92;41.00;;;;;;;5.54;100.00;99330.03;5069697;28;20025;-81
2023/12/03 03:20:01;;;;;;;63.70;42.75;;;;;;;5.36;100.00;99328.00;5068672;28;20127;-80
2023/12/03 03:22:26;;;;;;;65.53;41.83;;;;;;;5.70;100.00;99355.25;5069175;28;20036;-80
2023/12/03 03:24:52;;;;;;;64.50;42.15;;;;;;;5.49;100.00;99335.91;5068935;28;20028;-80
2023/12/03 03:27:18;;;;;;;61.65;39.10;;;;;;;5.18;100.00;99384.09;5069305;28;20040;-80
2023/12/03 03:29:43;;;;;;;61.85;39.42;;;;;;;5.07;100.00;99382.03;5050972;28;20021;-82
2023/12/03 03:32:09;;;;;;;57.15;39.35;;;;;;;5.19;100.00;99383.91;5069495;28;20103;-82
2023/12/03 03:34:35;;;;;;;60.70;39.88;;;;;;;5.50;100.00;99371.13;5069416;28;20032;-80
2023/12/03 03:37:00;;;;;;;61.63;41.33;;;;;;;5.63;100.00;99366.63;5069030;28;20028;-81
2023/12/03 03:39:25;;;;;;;60.80;40.25;;;;;;;5.74;100.00;99383.75;5069063;28;20069;-80
2023/12/03 03:41:51;;;;;;;59.65;39.00;;;;;;;5.25;100.00;99390.22;5068690;28;20028;-81
2023/12/03 03:44:16;;;;;;;60.95;38.88;;;;;;;5.37;100.00;99385.13;5051102;28;20083;-80
2023/12/03 03:46:41;;;;;;;61.40;39.38;;;;;;;5.24;100.00;99356.84;5068769;28;20082;-80
2023/12/03 03:49:07;;;;;;;61.10;39.58;;;;;;;5.39;100.00;99409.53;5068523;28;20127;-81
2023/12/03 03:51:32;;;;;;;68.43;44.63;;;;;;;5.21;100.00;99379.22;5069007;28;20023;-80
2023/12/03 03:53:58;;;;;;;64.15;39.20;;;;;;;5.29;100.00;99407.31;5068928;28;20488;-80
2023/12/03 03:56:23;;;;;;;68.50;44.05;;;;;;;5.32;100.00;99391.03;5050898;28;20025;-80
2023/12/03 03:58:48;;;;;;;59.95;41.03;;;;;;;5.49;100.00;99396.75;5050951;28;20119;-80
2023/12/03 04:01:14;;;;;;;59.33;40.67;;;;;;;5.66;100.00;99396.34;5050926;28;20021;-79
2023/12/03 04:03:39;;;;;;;62.53;41.63;;;;;;;5.62;100.00;99396.75;5068455;28;20033;-79
2023/12/03 04:06:06;;;;;;;66.47;43.50;;;;;;;5.18;100.00;99381.44;5063942;28;20056;-80
2023/12/03 04:08:32;;;;;;;61.42;41.33;;;;;;;5.51;100.00;99405.28;5052282;28;20056;-80
2023/12/03 04:11:03;;;;;;;63.15;41.92;;;;;;;5.52;100.00;99375.19;5068328;28;20103;-82
2023/12/03 04:13:28;;;;;;;65.32;43.70;;;;;;;5.19;100.00;99399.75;5069087;28;20050;-81
2023/12/03 04:15:54;;;;;;;68.95;46.55;;;;;;;5.35;100.00;99389.81;5072186;28;20028;-80
2023/12/03 04:18:19;;;;;;;72.05;47.85;;;;;;;5.29;100.00;99393.25;5054089;28;20028;-83
2023/12/03 04:20:44;;;;;;;69.55;43.97;;;;;;;5.41;100.00;99397.78;5072269;28;20128;-81
2023/12/03 04:23:10;;;;;;;71.38;46.20;;;;;;;5.44;100.00;99378.03;5072504;28;20381;-81
2023/12/03 04:25:35;;;;;;;67.95;45.53;;;;;;;5.52;100.00;99379.69;5072071;28;20098;-81
2023/12/03 04:28:01;;;;;;;61.72;41.92;;;;;;;5.54;100.00;99396.97;5054288;28;20057;-80
2023/12/03 04:30:27;;;;;;;60.95;42.22;;;;;;;5.24;100.00;99413.19;5053969;28;20086;-81
2023/12/03 04:32:52;;;;;;;61.35;42.80;;;;;;;5.35;100.00;99416.25;5072133;28;20115;-80
2023/12/03 04:35:17;;;;;;;67.97;44.72;;;;;;;5.71;100.00;99410.59;5054118;28;20033;-80
2023/12/03 04:37:43;;;;;;;69.13;45.53;;;;;;;5.54;100.00;99394.31;5072124;28;20032;-80
2023/12/03 04:40:09;;;;;;;68.35;44.42;;;;;;;5.59;100.00;99420.16;5071964;28;20671;-80
2023/12/03 04:42:35;;;;;;;72.80;46.33;;;;;;;5.60;100.00;99404.09;5071816;28;20451;-80
2023/12/03 04:45:01;;;;;;;68.95;45.38;;;;;;;5.70;100.00;99421.38;5072176;28;20046;-81
2023/12/03 04:47:26;;;;;;;73.35;46.85;;;;;;;5.70;100.00;99418.72;5071856;28;20036;-81
2023/12/03 04:49:51;;;;;;;69.03;45.45;;;;;;;5.81;100.00;99426.06;5053869;28;20039;-80
2023/12/03 04:52:17;;;;;;;76.13;46.92;;;;;;;5.80;100.00;99435.00;5054036;28;20448;-81
2023/12/03 04:54:42;;;;;;;67.70;44.40;;;;;;;5.73;100.00;99442.16;5071722;28;20029;-80
2023/12/03 04:57:08;;;;;;;71.82;48.13;;;;;;;5.46;100.00;99455.34;5053768;28;20024;-80
2023/12/03 04:59:33;;;;;;;68.40;45.72;;;;;;;5.53;100.00;99435.00;5071884;28;20024;-80
2023/12/03 05:01:58;;;;;;;75.72;48.75;;;;;;;5.67;100.00;99442.97;5071606;28;20016;-81
2023/12/03 05:04:26;;;;;;;71.65;48.15;;;;;;;5.73;100.00;99434.22;5071479;28;20032;-81
2023/12/03 05:06:51;;;;;;;74.20;48.92;;;;;;;5.80;100.00;99440.31;5071327;28;20575;-80
2023/12/03 05:09:17;;;;;;;73.30;48.80;;;;;;;5.86;100.00;99418.31;5068238;28;20116;-80
2023/12/03 05:11:44;;;;;;;72.28;50.30;;;;;;;5.98;100.00;99427.31;5071432;28;20393;-81
2023/12/03 05:14:09;;;;;;;74.05;49.95;;;;;;;5.73;100.00;99435.03;5053354;28;20477;-80
2023/12/03 05:16:35;;;;;;;74.55;51.78;;;;;;;5.92;100.00;99443.97;5071349;28;20055;-81
2023/12/03 05:19:00;;;;;;;79.20;52.75;;;;;;;5.96;100.00;99471.69;5052837;28;20029;-80
2023/12/03 05:21:26;;;;;;;84.45;60.40;;;;;;;5.87;100.00;99451.72;5071199;28;20079;-80
2023/12/03 05:23:51;;;;;;;93.15;62.05;;;;;;;5.62;100.00;99449.66;5070882;28;20021;-81
2023/12/03 05:26:16;;;;;;;80.30;57.03;;;;;;;5.65;100.00;99429.94;5070563;28;20417;-81
2023/12/03 05:28:42;;;;;;;548.20;295.02;;;;;;;5.90;100.00;99440.72;5071613;28;20037;-79
2023/12/03 05:31:08;;;;;;;244.32;129.10;;;;;;;5.77;100.00;99451.31;5070925;28;20112;-81
2023/12/03 05:33:33;;;;;;;91.30;62.70;;;;;;;5.71;100.00;99452.13;5071388;28;20477;-82
2023/12/03 05:35:58;;;;;;;109.75;71.97;;;;;;;5.75;100.00;99433.00;5070593;28;20025;-80
2023/12/03 05:38:24;;;;;;;97.47;64.13;;;;;;;6.00;100.00;99475.56;5071065;28;20485;-82
2023/12/03 05:40:49;;;;;;;88.45;57.70;;;;;;;5.81;100.00;99456.00;5071126;28;20033;-80
2023/12/03 05:43:15;;;;;;;74.22;50.13;;;;;;;5.73;100.00;99473.91;5053169;28;20016;-81
2023/12/03 05:45:40;;;;;;;66.95;42.90;;;;;;;5.67;100.00;99432.38;5067086;28;20036;-80
2023/12/03 05:48:06;;;;;;;60.38;39.83;;;;;;;5.78;100.00;99474.09;5067204;28;20024;-80
2023/12/03 05:50:32;;;;;;;62.75;42.63;;;;;;;5.39;100.00;99439.47;5052701;28;20109;-80
2023/12/03 05:52:58;;;;;;;56.78;39.47;;;;;;;5.73;100.00;99465.97;5052733;28;20520;-81
2023/12/03 05:55:23;;;;;;;55.70;38.65;;;;;;;5.41;100.00;99448.00;5070658;28;20112;-79
2023/12/03 05:57:49;;;;;;;63.15;42.13;;;;;;;5.46;100.00;99457.97;5070480;28;20463;-81
2023/12/03 06:00:15;;;;;;;55.40;39.50;;;;;;;5.33;100.00;99457.94;5070592;28;20029;-81
2023/12/03 06:02:40;;;;;;;55.15;37.47;;;;;;;5.37;100.00;99467.09;5070343;28;20056;-80
2023/12/03 06:05:06;;;;;;;57.15;35.55;;;;;;;5.18;100.00;99458.09;5052212;28;20036;-80
2023/12/03 06:07:32;;;;;;;54.97;37.33;;;;;;;5.29;100.00;99477.84;5052361;28;20032;-81
2023/12/03 06:09:58;;;;;;;56.15;37.75;;;;;;;5.09;100.00;99465.41;5070183;28;20486;-80
2023/12/03 06:12:23;;;;;;;53.35;37.38;;;;;;;5.23;100.00;99456.50;5052429;28;20039;-80
2023/12/03 06:14:48;;;;;;;55.88;37.45;;;;;;;5.33;100.00;99469.34;5070194;28;20036;-82
2023/12/03 06:17:14;;;;;;;54.30;39.08;;;;;;;5.41;100.00;99433.97;5070754;28;20058;-80
2023/12/03 06:19:39;;;;;;;62.63;47.25;;;;;;;5.56;100.00;99434.59;5070132;28;21653;-81
2023/12/03 06:22:04;;;;;;;58.42;40.00;;;;;;;5.73;100.00;99436.84;5070771;28;20058;-81
2023/12/03 06:24:30;;;;;;;70.78;41.80;;;;;;;5.97;100.00;99473.34;5069949;28;20033;-81
2023/12/03 06:26:55;;;;;;;60.70;42.88;;;;;;;5.78;100.00;99469.63;5070358;28;20052;-80
2023/12/03 06:29:21;;;;;;;57.08;41.38;;;;;;;6.09;100.00;99464.78;5052083;28;20119;-80
2023/12/03 06:31:49;;;;;;;57.10;41.17;;;;;;;5.90;100.00;99490.19;5069922;28;20457;-80
2023/12/03 06:34:16;;;;;;;58.60;38.88;;;;;;;5.92;100.00;99488.97;5069848;28;20036;-81
2023/12/03 06:36:41;;;;;;;58.33;40.00;;;;;;;5.90;100.00;99496.28;5060454;28;20025;-80
2023/12/03 06:39:07;;;;;;;67.63;43.00;;;;;;;5.78;100.00;99484.69;5051931;28;20116;-81
2023/12/03 06:41:33;;;;;;;139.05;59.78;;;;;;;6.02;100.00;99480.66;5050330;28;20086;-80
2023/12/03 06:43:58;;;;;;;83.78;49.85;;;;;;;5.96;100.00;99476.97;5049900;28;20033;-81
2023/12/03 06:46:24;;;;;;;109.90;59.00;;;;;;;5.93;100.00;99477.38;5032208;28;20025;-81
2023/12/03 06:48:49;;;;;;;87.45;50.88;;;;;;;5.95;100.00;99451.56;5070005;28;20024;-81
2023/12/03 06:51:14;;;;;;;73.07;48.83;;;;;;;6.02;100.00;99460.28;5070213;28;20032;-80
2023/12/03 06:53:40;;;;;;;78.90;52.80;;;;;;;6.21;100.00;99455.19;5069820;28;20090;-81
2023/12/03 06:56:09;;;;;;;70.28;46.45;;;;;;;6.37;100.00;99483.91;5069391;28;20024;-80
2023/12/03 06:58:34;;;;;;;71.97;47.97;;;;;;;6.00;100.00;99491.44;5069332;28;20024;-80
2023/12/03 07:00:59;;;;;;;89.65;53.40;;;;;;;6.20;100.00;99504.69;5069446;28;20166;-80
2023/12/03 07:03:25;;;;;;;125.00;69.78;;;;;;;6.18;100.00;99476.78;5065781;28;20039;-81
2023/12/03 07:05:50;;;;;;;119.00;72.78;;;;;;;6.46;100.00;99502.22;5052828;28;20497;-81
2023/12/03 07:08:16;;;;;;;118.13;75.00;;;;;;;6.27;100.00;99509.97;5063767;28;20025;-81
2023/12/03 07:10:41;;;;;;;213.27;117.10;;;;;;;6.32;100.00;99493.50;5069365;28;20024;-79
2023/12/03 07:13:07;;;;;;;119.38;77.55;;;;;;;6.44;100.00;99513.84;5069185;28;20036;-80
2023/12/03 07:15:32;;;;;;;129.80;84.65;;;;;;;6.50;100.00;99485.72;5062249;28;20050;-80
2023/12/03 07:17:57;;;;;;;115.68;73.03;;;;;;;6.68;100.00;99506.28;5065876;28;20052;-80
2023/12/03 07:20:23;;;;;;;107.03;72.05;;;;;;;6.83;100.00;99503.38;5063263;28;20037;-81
2023/12/03 07:22:49;;;;;;;144.27;91.78;;;;;;;7.02;100.00;99522.91;5059986;28;20017;-80
2023/12/03 07:25:14;;;;;;;109.30;76.22;;;;;;;6.76;100.00;99514.03;5059374;28;20044;-80
2023/12/03 07:27:40;;;;;;;271.15;157.00;;;;;;;6.76;100.00;99519.31;5037318;28;20112;-81
2023/12/03 07:30:06;;;;;;;192.25;121.43;;;;;;;7.08;100.00;99553.88;5059975;28;20115;-82
2023/12/03 07:32:31;;;;;;;139.20;87.15;;;;;;;6.78;100.00;99503.19;5061845;28;20021;-82
2023/12/03 07:34:57;;;;;;;111.05;77.00;;;;;;;6.88;100.00;99495.63;5053704;28;20025;-80
2023/12/03 07:37:22;;;;;;;87.30;60.88;;;;;;;7.33;100.00;99524.00;5064120;28;20016;-80
2023/12/03 07:39:48;;;;;;;72.55;49.53;;;;;;;7.32;100.00;99503.84;5066205;28;20029;-82
2023/12/03 07:42:13;;;;;;;71.10;48.92;;;;;;;7.16;100.00;99508.56;5069223;28;20085;-80
2023/12/03 07:44:39;;;;;;;67.63;45.33;;;;;;;7.09;100.00;99502.50;5051237;28;20068;-80
2023/12/03 07:47:05;;;;;;;126.70;70.75;;;;;;;7.39;100.00;99539.09;5069101;28;20029;-80
2023/12/03 07:49:30;;;;;;;119.85;68.00;;;;;;;7.44;100.00;99526.00;5073244;28;20024;-80
2023/12/03 07:51:56;;;;;;;86.25;55.25;;;;;;;7.37;100.00;99531.34;5073570;28;20020;-81
2023/12/03 07:54:21;;;;;;;80.50;52.47;;;;;;;7.35;100.00;99516.66;5072131;28;20035;-81
2023/12/03 07:56:46;;;;;;;96.43;57.55;;;;;;;7.34;100.00;99510.53;5065706;28;20062;-80
2023/12/03 07:59:12;;;;;;;100.57;60.17;;;;;;;7.57;100.00;99536.53;5073019;28;20412;-80
2023/12/03 08:01:38;;;;;;;114.28;73.65;;;;;;;7.55;100.00;99554.53;5073568;28;20029;-81
2023/12/03 08:04:06;;;;;;;118.80;69.18;;;;;;;7.54;100.00;99546.75;5073073;28;20036;-80
2023/12/03 08:06:32;;;;;;;101.13;63.33;;;;;;;7.58;100.00;99556.75;5072379;28;20025;-80
2023/12/03 08:08:58;;;;;;;86.68;57.40;;;;;;;7.90;100.00;99571.91;5075090;28;20033;-80
2023/12/03 08:11:24;;;;;;;88.65;56.30;;;;;;;7.85;100.00;99567.25;5089797;28;20028;-80
2023/12/03 08:13:49;;;;;;;92.20;60.65;;;;;;;7.84;100.00;99563.75;5092897;28;20459;-83
2023/12/03 08:16:15;;;;;;;96.20;56.30;;;;;;;7.93;100.00;99561.69;5090503;28;20027;-84
2023/12/03 08:18:42;;;;;;;177.00;100.05;;;;;;;7.84;100.00;99552.31;5093461;28;20106;-81
2023/12/03 08:21:09;;;;;;;59.40;41.90;;;;;;;7.87;100.00;99585.59;5089851;28;20041;-84
2023/12/03 08:23:35;;;;;;;63.72;43.65;;;;;;;7.75;100.00;99564.22;5088277;28;20027;-79
2023/12/03 08:26:03;;;;;;;56.78;37.38;;;;;;;7.60;100.00;99530.84;5087642;28;20032;-81
2023/12/03 08:28:29;;;;;;;53.13;36.42;;;;;;;8.08;100.00;99579.16;5090045;28;20017;-81
2023/12/03 08:30:54;;;;;;;51.92;35.63;;;;;;;8.04;100.00;99584.06;5073946;28;20048;-84
2023/12/03 08:33:20;;;;;;;50.95;34.40;;;;;;;7.97;100.00;99612.53;5093110;28;20045;-84
2023/12/03 08:35:47;;;;;;;47.08;34.03;;;;;;;7.78;100.00;99563.78;5071783;28;20036;-80
2023/12/03 08:38:13;;;;;;;46.00;33.20;;;;;;;8.12;100.00;99598.94;5068403;28;20040;-80
2023/12/03 08:40:39;;;;;;;50.47;33.63;;;;;;;8.21;100.00;99589.69;5085947;28;20115;-82
2023/12/03 08:43:05;;;;;;;44.25;31.92;;;;;;;7.93;100.00;99561.69;5067782;28;20113;-82
2023/12/03 08:45:32;;;;;;;46.78;33.63;;;;;;;7.99;100.00;99586.56;5086746;28;20042;-83
2023/12/03 08:47:58;;;;;;;43.05;30.65;;;;;;;7.89;100.00;99564.97;5085732;28;20088;-79
2023/12/03 08:50:27;;;;;;;43.70;32.25;;;;;;;7.94;100.00;99576.56;5085308;28;20055;-82
2023/12/03 08:52:53;;;;;;;49.40;34.53;;;;;;;8.19;100.00;99612.97;5083906;28;20032;-82
2023/12/03 08:55:18;;;;;;;50.50;32.97;;;;;;;8.12;100.00;99612.22;5082122;28;20054;-80
2023/12/03 08:57:44;;;;;;;49.13;34.05;;;;;;;7.97;100.00;99578.81;5080937;28;20032;-81
2023/12/03 09:00:12;;;;;;;45.70;32.55;;;;;;;8.16;100.00;99605.44;5079468;28;20113;-79
2023/12/03 09:02:38;;;;;;;46.33;32.55;;;;;;;8.00;100.00;99591.66;5077225;28;20073;-81
2023/12/03 09:05:04;;;;;;;48.90;33.15;;;;;;;8.07;100.00;99604.06;5075775;28;20032;-79
2023/12/03 09:07:30;;;;;;;43.25;32.60;;;;;;;8.13;100.00;99582.81;5074370;28;20041;-80
2023/12/03 09:09:57;;;;;;;44.70;32.05;;;;;;;8.41;100.00;99608.16;5073046;28;20025;-80
2023/12/03 09:12:22;;;;;;;43.20;30.92;;;;;;;8.41;100.00;99595.69;5072820;28;20028;-80
2023/12/03 09:14:47;;;;;;;45.75;32.50;;;;;;;8.36;100.00;99602.66;5072060;28;20401;-79
2023/12/03 09:17:13;;;;;;;47.42;32.50;;;;;;;8.27;100.00;99599.44;5071853;28;20429;-81
2023/12/03 09:19:38;;;;;;;48.88;32.20;;;;;;;8.28;100.00;99616.22;5071606;28;20074;-80
2023/12/03 09:22:04;;;;;;;50.42;32.05;;;;;;;8.34;100.00;99600.22;5071901;28;20031;-80
2023/12/03 09:24:30;;;;;;;43.75;30.75;;;;;;;8.28;100.00;99592.31;5072483;28;20675;-80
2023/12/03 09:26:56;;;;;;;54.20;36.00;;;;;;;8.44;100.00;99595.28;5049627;28;20490;-80
2023/12/03 09:29:21;;;;;;;47.13;34.55;;;;;;;8.68;100.00;99599.97;5068930;28;20046;-82
2023/12/03 09:31:47;;;;;;;45.00;32.90;;;;;;;8.79;100.00;99623.22;5071384;28;20025;-81
2023/12/03 09:34:12;;;;;;;44.50;30.40;;;;;;;8.52;100.00;99606.66;5053730;28;20033;-81
2023/12/03 09:36:37;;;;;;;43.35;30.67;;;;;;;8.62;100.00;99617.59;5071203;28;20455;-79
2023/12/03 09:39:04;;;;;;;41.40;31.45;;;;;;;8.87;100.00;99592.84;5071152;28;20046;-81
2023/12/03 09:41:33;;;;;;;174.32;73.75;;;;;;;8.98;100.00;99610.75;5070491;28;20421;-79
2023/12/03 09:44:03;;;;;;;39.25;27.95;;;;;;;8.87;100.00;99624.75;5070817;28;20035;-80
2023/12/03 09:46:32;;;;;;;74.32;42.00;;;;;;;8.70;100.00;99555.38;5071417;28;20125;-81
2023/12/03 09:49:00;;;;;;;111.70;68.32;;;;;;;9.23;100.00;99597.41;5071173;28;20032;-79
2023/12/03 09:51:27;;;;;;;416.40;213.23;;;;;;;9.14;100.00;99572.94;5052529;28;20032;-80
2023/12/03 09:53:57;;;;;;;437.50;210.40;;;;;;;9.28;100.00;99604.75;5052635;28;20040;-81
2023/12/03 09:56:25;;;;;;;196.48;95.60;;;;;;;9.02;100.00;99558.75;5070975;28;20032;-79
2023/12/03 09:58:51;;;;;;;;;;;;;;;9.50;100.00;99602.41;5070372;28;20033;-80
2023/12/03 10:01:16;;;;;;;257.48;126.15;;;;;;;9.56;100.00;99581.06;5069866;28;19926;-80
2023/12/03 10:03:42;;;;;;;85.22;48.42;;;;;;;9.52;100.00;99584.38;5069882;28;20103;-80
2023/12/03 10:06:09;;;;;;;65.72;39.38;;;;;;;9.48;100.00;99572.56;5069809;28;20044;-80
2023/12/03 10:08:35;;;;;;;45.03;28.23;;;;;;;9.34;100.00;99562.09;5070162;28;20108;-80
2023/12/03 10:11:05;;;;;;;48.35;31.05;;;;;;;9.46;100.00;99586.09;5069477;28;20548;-79
2023/12/03 10:13:31;;;;;;;137.40;76.80;;;;;;;9.76;100.00;99614.59;5070232;28;20031;-81
2023/12/03 10:15:57;;;;;;;49.78;31.40;;;;;;;9.70;100.00;99624.28;5070364;28;20524;-80
2023/12/03 10:18:23;;;;;;;48.80;30.50;;;;;;;9.83;100.00;99618.00;5069785;28;20020;-81
2023/12/03 10:21:03;;;;;;;235.93;111.32;;;;;;;9.84;100.00;99603.63;5052148;28;20040;-80
2023/12/03 10:23:29;;;;;;;71.20;40.90;;;;;;;9.70;100.00;99587.00;5052132;28;20098;-80
2023/12/03 10:26:08;;;;;;;227.52;107.18;;;;;;;9.60;100.00;99571.59;5069930;28;20028;-81
2023/12/03 10:28:33;;;;;;;127.03;62.67;;;;;;;9.79;100.00;99577.69;5069906;28;20029;-81
2023/12/03 10:30:58;;;;;;;121.75;61.53;;;;;;;9.84;100.00;99583.13;5051649;28;20028;-79
2023/12/03 10:33:25;;;;;;;489.67;251.95;;;;;;;9.95;100.00;99586.06;5069989;28;20024;-80
2023/12/03 10:35:50;;;;;;;292.08;141.65;;;;;;;9.83;100.00;99576.19;5066000;28;20029;-80
2023/12/03 10:38:16;;;;;;;178.05;87.78;;;;;;;10.12;100.00;99615.56;5061691;28;20047;-80
2023/12/03 10:40:42;;;;;;;116.60;62.75;;;;;;;9.94;100.00;99593.25;5069305;28;20131;-80
2023/12/03 10:43:11;;;;;;;122.50;63.65;;;;;;;10.22;100.00;99605.97;5069553;28;20030;-79
2023/12/03 10:45:36;;;;;;;57.67;37.78;;;;;;;10.19;100.00;99594.94;5069442;28;20033;-81
2023/12/03 10:48:04;;;;;;;64.18;40.05;;;;;;;10.28;100.00;99598.94;5069532;28;20023;-80
2023/12/03 10:50:30;;;;;;;70.18;41.92;;;;;;;10.22;100.00;99594.50;5069554;28;20036;-81
2023/12/03 10:52:58;;;;;;;106.78;58.60;;;;;;;10.33;100.00;99588.41;5069611;28;20043;-81
2023/12/03 10:55:24;;;;;;;115.78;59.28;;;;;;;10.37;100.00;99584.25;5069475;28;20619;-80
2023/12/03 10:58:00;;;;;;;60.08;37.78;;;;;;;10.47;100.00;99590.88;5069061;28;20099;-82
2023/12/03 11:00:34;;;;;;;62.58;35.33;;;;;;;10.69;100.00;99613.28;5069597;28;20413;-80
2023/12/03 11:03:08;;;;;;;41.35;26.35;;;;;;;10.59;100.00;99626.38;5069142;28;20116;-81
2023/12/03 11:05:42;;;;;;;35.47;26.13;;;;;;;10.80;100.00;99628.47;5069666;28;20033;-79
2023/12/03 11:08:08;;;;;;;34.20;24.60;;;;;;;10.82;100.00;99620.25;5069194;28;20728;-80
2023/12/03 11:10:33;;;;;;;396.67;175.20;;;;;;;10.83;100.00;99605.88;5069410;28;20032;-81